Time;durP1;ratioP1;P1;durP2;ratioP2;P2;SDS_P1;SDS_P2;PMS_P1;PMS_P2;Temp;Humidity;BMP_temperature;BMP_pressure;BME280_temperature;BME280_humidity;BME280_pressure;Samples;Min_cycle;Max_cycle;Signal;HPM_P1;HPM_P2
2022/06/05 00:00:11;;;;;;;15.23;9.00;;;23.00;62.70;;;;;;5064017;28;20023;-68
2022/06/05 00:02:55;;;;;;;15.77;8.45;;;23.00;62.70;;;;;;5064512;28;20107;-68
2022/06/05 00:05:33;;;;;;;15.30;8.55;;;23.00;62.70;;;;;;5063286;28;20032;-68
2022/06/05 00:08:27;;;;;;;15.20;8.30;;;22.90;62.60;;;;;;5066402;28;20040;-68
2022/06/05 00:10:57;;;;;;;16.13;8.60;;;22.90;62.60;;;;;;5077291;28;20592;-68
2022/06/05 00:13:37;;;;;;;13.90;8.15;;;22.90;62.60;;;;;;5065264;28;20021;-68
2022/06/05 00:16:04;;;;;;;14.75;8.18;;;22.90;62.70;;;;;;5068766;28;20506;-67
2022/06/05 00:18:34;;;;;;;14.80;8.05;;;22.90;62.70;;;;;;5067047;28;20012;-67
2022/06/05 00:21:00;;;;;;;14.25;8.20;;;22.90;62.70;;;;;;5064956;28;20081;-68
2022/06/05 00:23:25;;;;;;;14.57;8.77;;;22.90;62.60;;;;;;5065555;28;20036;-68
2022/06/05 00:26:09;;;;;;;15.77;8.23;;;22.90;62.60;;;;;;5067826;28;20060;-67
2022/06/05 00:28:38;;;;;;;15.95;9.02;;;22.90;62.60;;;;;;5064734;28;20021;-68
2022/06/05 00:31:38;;;;;;;13.43;8.20;;;22.90;62.60;;;;;;5066440;28;20032;-68
2022/06/05 00:34:04;;;;;;;14.25;7.90;;;22.90;62.70;;;;;;5065798;28;20047;-68
2022/06/05 00:36:45;;;;;;;14.50;8.05;;;22.90;62.50;;;;;;5066511;28;20029;-68
2022/06/05 00:39:13;;;;;;;15.25;8.23;;;22.80;62.50;;;;;;5064607;28;20029;-68
2022/06/05 00:41:50;;;;;;;13.60;8.50;;;22.80;62.50;;;;;;5066043;28;20448;-67
2022/06/05 00:44:23;;;;;;;14.50;8.35;;;22.80;62.60;;;;;;5064502;28;20116;-66
2022/06/05 00:46:50;;;;;;;12.43;7.78;;;22.90;62.60;;;;;;5065141;28;20030;-68
2022/06/05 00:49:16;;;;;;;14.60;8.48;;;22.80;62.50;;;;;;5066238;28;20076;-68
2022/06/05 00:51:42;;;;;;;14.25;7.78;;;22.80;62.60;;;;;;5066915;28;20418;-68
2022/06/05 00:54:09;;;;;;;13.43;8.23;;;22.80;62.50;;;;;;5064740;28;20109;-68
2022/06/05 00:56:34;;;;;;;14.10;7.95;;;22.80;62.60;;;;;;5062808;28;20142;-68
2022/06/05 00:59:00;;;;;;;13.23;8.13;;;22.80;62.50;;;;;;5065801;28;20055;-67
2022/06/05 01:01:26;;;;;;;14.23;7.90;;;22.80;62.50;;;;;;5065355;28;20039;-68
2022/06/05 01:03:51;;;;;;;14.43;7.82;;;22.80;62.50;;;;;;5064785;28;20085;-67
2022/06/05 01:06:17;;;;;;;13.13;7.47;;;22.70;62.40;;;;;;5065462;28;20025;-67
2022/06/05 01:08:43;;;;;;;14.27;8.13;;;22.80;62.40;;;;;;5063398;28;20043;-68
2022/06/05 01:11:18;;;;;;;14.50;8.10;;;22.80;62.60;;;;;;5065031;28;20021;-68
2022/06/05 01:14:09;;;;;;;14.65;7.57;;;22.70;62.40;;;;;;5062498;28;20231;-67
2022/06/05 01:17:12;;;;;;;12.30;7.70;;;22.70;62.40;;;;;;5065649;28;20028;-68
2022/06/05 01:19:56;;;;;;;12.40;7.55;;;22.70;62.50;;;;;;5068094;28;20373;-68
2022/06/05 01:22:49;;;;;;;14.15;7.20;;;22.70;62.40;;;;;;5064506;28;20060;-67
2022/06/05 01:25:52;;;;;;;12.60;7.25;;;22.70;62.40;;;;;;5049665;28;20107;-68
2022/06/05 01:28:20;;;;;;;11.88;7.32;;;22.70;62.40;;;;;;5063256;28;20121;-68
2022/06/05 01:30:56;;;;;;;14.25;7.88;;;22.70;62.40;;;;;;5061386;28;20048;-67
2022/06/05 01:33:23;;;;;;;15.05;7.97;;;22.70;62.40;;;;;;5063064;28;20178;-68
2022/06/05 01:35:58;;;;;;;13.85;7.68;;;22.70;62.40;;;;;;5061697;28;20033;-68
2022/06/05 01:38:38;;;;;;;12.55;7.65;;;22.70;62.40;;;;;;5063628;28;20274;-68
2022/06/05 01:41:11;;;;;;;13.13;7.55;;;22.70;62.40;;;;;;5063834;28;20021;-67
2022/06/05 01:43:38;;;;;;;13.48;7.15;;;22.60;62.30;;;;;;5041912;28;20053;-67
2022/06/05 01:46:15;;;;;;;12.73;7.30;;;22.60;62.30;;;;;;5047477;28;20028;-68
2022/06/05 01:48:44;;;;;;;15.70;7.25;;;22.70;62.40;;;;;;5061448;28;20127;-68
2022/06/05 01:51:29;;;;;;;13.18;7.15;;;22.60;62.30;;;;;;5042710;28;20114;-68
2022/06/05 01:53:55;;;;;;;12.82;7.28;;;22.60;62.30;;;;;;5062519;28;20039;-67
2022/06/05 01:56:25;;;;;;;11.88;6.90;;;22.60;62.30;;;;;;5045477;28;20032;-67
2022/06/05 01:58:59;;;;;;;12.68;7.55;;;22.60;62.30;;;;;;5062578;28;20017;-68
2022/06/05 02:01:32;;;;;;;12.77;7.43;;;22.60;62.30;;;;;;5048408;28;20405;-68
2022/06/05 02:04:05;;;;;;;12.57;7.28;;;22.60;62.30;;;;;;5061318;28;20847;-68
2022/06/05 02:06:38;;;;;;;13.15;7.40;;;22.60;62.30;;;;;;5043688;28;20025;-68
2022/06/05 02:09:07;;;;;;;12.77;7.45;;;22.60;62.30;;;;;;5059239;28;20024;-67
2022/06/05 02:11:33;;;;;;;11.60;6.90;;;22.60;62.30;;;;;;5061398;28;20492;-59
2022/06/05 02:14:04;;;;;;;12.40;7.00;;;22.60;62.30;;;;;;5061824;28;20047;-68
2022/06/05 02:16:31;;;;;;;12.52;7.18;;;22.60;62.30;;;;;;5061979;28;20028;-68
2022/06/05 02:18:58;;;;;;;12.95;7.90;;;22.50;62.30;;;;;;5076541;28;20039;-66
2022/06/05 02:21:23;;;;;;;14.20;7.38;;;22.50;62.30;;;;;;5059278;28;20108;-68
2022/06/05 02:23:49;;;;;;;12.02;6.95;;;22.50;62.30;;;;;;5060452;28;20495;-67
2022/06/05 02:26:14;;;;;;;12.57;7.05;;;22.50;62.30;;;;;;5062594;28;20088;-67
2022/06/05 02:28:40;;;;;;;11.68;6.50;;;22.50;62.30;;;;;;5062817;28;20073;-67
2022/06/05 02:31:33;;;;;;;11.77;7.20;;;22.50;62.30;;;;;;5064333;28;20085;-67
2022/06/05 02:34:13;;;;;;;12.75;7.57;;;22.50;62.30;;;;;;5062638;28;20452;-68
2022/06/05 02:37:00;;;;;;;13.63;7.20;;;22.50;62.20;;;;;;5045336;28;20058;-67
2022/06/05 02:39:38;;;;;;;11.93;6.80;;;22.50;62.30;;;;;;5060826;28;20043;-67
2022/06/05 02:42:08;;;;;;;12.20;6.75;;;22.50;62.30;;;;;;5059663;28;20025;-68
2022/06/05 02:44:54;;;;;;;12.30;6.85;;;22.50;62.40;;;;;;5061176;28;20036;-67
2022/06/05 02:47:26;;;;;;;12.30;7.60;;;22.50;62.20;;;;;;5059895;28;20089;-68
2022/06/05 02:50:10;;;;;;;13.07;6.82;;;22.50;62.20;;;;;;5061468;28;20052;-68
2022/06/05 02:52:36;;;;;;;11.43;6.78;;;22.40;62.20;;;;;;5059999;28;20033;-68
2022/06/05 02:55:12;;;;;;;10.90;7.05;;;22.50;62.30;;;;;;5058986;28;20039;-67
2022/06/05 02:57:38;;;;;;;10.70;6.63;;;22.40;62.20;;;;;;5057687;28;20029;-67
2022/06/05 03:00:16;;;;;;;12.55;6.97;;;22.50;62.30;;;;;;5061059;28;20443;-67
2022/06/05 03:05:25;;;;;;;13.43;6.93;;;22.40;62.20;;;;;;5059142;28;20035;-67
2022/06/05 03:07:51;;;;;;;12.80;6.88;;;22.40;62.30;;;;;;5059623;28;20413;-67
2022/06/05 03:10:17;;;;;;;11.88;6.90;;;22.40;62.20;;;;;;5062710;28;20083;-67
2022/06/05 03:12:42;;;;;;;11.82;7.25;;;22.40;62.20;;;;;;5059459;28;20121;-67
2022/06/05 03:15:08;;;;;;;11.23;6.60;;;22.40;62.20;;;;;;5058414;28;20040;-67
2022/06/05 03:17:34;;;;;;;11.50;6.50;;;22.40;62.20;;;;;;5057521;28;20048;-68
2022/06/05 03:20:00;;;;;;;13.00;6.97;;;22.40;62.20;;;;;;5060167;28;20032;-67
2022/06/05 03:22:26;;;;;;;12.48;6.97;;;22.40;62.20;;;;;;5061120;28;20127;-67
2022/06/05 03:24:52;;;;;;;11.85;6.72;;;22.30;62.10;;;;;;5062929;28;20489;-67
2022/06/05 03:27:18;;;;;;;10.20;6.20;;;22.40;62.20;;;;;;5058052;28;20029;-67
2022/06/05 03:29:44;;;;;;;10.65;6.35;;;22.30;62.20;;;;;;5062391;28;20036;-67
2022/06/05 03:32:10;;;;;;;12.00;6.50;;;22.30;62.20;;;;;;5059743;28;20485;-67
2022/06/05 03:34:35;;;;;;;11.63;6.93;;;22.30;62.20;;;;;;5062288;28;20182;-67
2022/06/05 03:37:01;;;;;;;11.43;6.32;;;22.30;62.20;;;;;;5062545;28;20581;-67
2022/06/05 03:39:27;;;;;;;10.63;6.30;;;22.30;62.20;;;;;;5055657;28;20500;-68
2022/06/05 03:41:54;;;;;;;10.75;6.40;;;22.30;62.20;;;;;;5059786;28;20447;-67
2022/06/05 03:44:19;;;;;;;9.75;6.30;;;22.30;62.30;;;;;;5062445;28;20075;-67
2022/06/05 03:46:45;;;;;;;11.02;6.43;;;22.30;62.40;;;;;;5062973;28;20564;-68
2022/06/05 03:49:11;;;;;;;11.82;6.32;;;22.30;62.40;;;;;;5063818;28;20505;-68
2022/06/05 03:51:36;;;;;;;11.07;6.38;;;22.30;62.40;;;;;;5063366;28;20027;-67
2022/06/05 03:54:02;;;;;;;10.77;6.50;;;22.30;62.40;;;;;;5062432;28;20106;-67
2022/06/05 03:56:28;;;;;;;11.55;6.35;;;22.30;62.40;;;;;;5061620;28;20032;-67
2022/06/05 03:58:54;;;;;;;10.85;6.13;;;22.30;62.40;;;;;;5059058;28;20045;-68
2022/06/05 04:01:21;;;;;;;9.77;6.07;;;22.30;62.40;;;;;;5057152;28;20389;-67
2022/06/05 04:03:46;;;;;;;9.88;6.18;;;22.30;62.40;;;;;;5062612;28;20489;-68
2022/06/05 04:06:13;;;;;;;11.85;6.47;;;22.30;62.40;;;;;;5063292;28;20085;-68
2022/06/05 04:08:39;;;;;;;10.52;5.90;;;22.20;62.40;;;;;;5064494;28;20044;-67
2022/06/05 04:11:06;;;;;;;12.93;6.45;;;22.20;63.40;;;;;;5063491;28;20078;-67
2022/06/05 04:13:31;;;;;;;11.88;6.15;;;22.20;62.40;;;;;;5065952;28;20371;-67
2022/06/05 04:15:57;;;;;;;11.20;6.55;;;22.20;62.40;;;;;;5065316;28;20086;-67
2022/06/05 04:18:22;;;;;;;11.57;6.70;;;22.20;62.50;;;;;;5062551;28;20052;-67
2022/06/05 04:20:48;;;;;;;12.48;6.40;;;22.20;62.50;;;;;;5065077;28;20488;-68
2022/06/05 04:23:14;;;;;;;10.57;6.32;;;22.20;62.50;;;;;;5064113;28;20878;-68
2022/06/05 04:25:43;;;;;;;10.95;6.55;;;22.20;62.50;;;;;;5065319;28;20017;-67
2022/06/05 04:28:09;;;;;;;10.70;5.95;;;22.20;62.50;;;;;;5066838;28;20485;-67
2022/06/05 04:30:38;;;;;;;10.13;6.00;;;22.20;62.50;;;;;;5061861;28;20048;-68
2022/06/05 04:33:04;;;;;;;10.50;6.32;;;22.20;62.60;;;;;;5063010;28;20056;-67
2022/06/05 04:35:29;;;;;;;11.15;6.07;;;22.20;62.60;;;;;;5062058;28;20529;-68
2022/06/05 04:37:55;;;;;;;10.43;5.90;;;22.20;62.60;;;;;;5062134;28;20025;-68
2022/06/05 04:40:21;;;;;;;10.43;6.35;;;22.20;62.60;;;;;;5064696;28;20021;-68
2022/06/05 04:42:46;;;;;;;10.70;6.40;;;22.20;62.60;;;;;;5064935;28;20036;-67
2022/06/05 04:45:12;;;;;;;10.80;6.13;;;22.20;62.60;;;;;;5064917;28;20032;-67
2022/06/05 04:47:40;;;;;;;10.93;6.05;;;22.20;62.60;;;;;;5062688;28;20028;-67
2022/06/05 04:50:06;;;;;;;11.30;5.90;;;22.10;63.60;;;;;;5062711;28;20365;-68
2022/06/05 04:52:32;;;;;;;10.98;6.20;;;22.10;62.60;;;;;;5063579;28;20032;-67
2022/06/05 04:54:58;;;;;;;11.07;6.05;;;22.10;62.60;;;;;;5062530;28;20033;-67
2022/06/05 04:57:23;;;;;;;10.27;5.80;;;22.10;62.60;;;;;;5062744;28;20313;-68
2022/06/05 04:59:49;;;;;;;12.63;6.57;;;22.10;62.60;;;;;;5061935;28;20040;-67
2022/06/05 05:02:17;;;;;;;10.27;5.95;;;22.10;62.60;;;;;;5064047;28;20070;-67
2022/06/05 05:04:42;;;;;;;8.75;5.45;;;22.10;62.60;;;;;;5063222;28;20036;-68
2022/06/05 05:07:08;;;;;;;10.25;5.85;;;22.10;62.60;;;;;;5064615;28;20035;-67
2022/06/05 05:09:34;;;;;;;9.32;5.30;;;22.10;62.60;;;;;;5059726;28;20107;-67
2022/06/05 05:11:59;;;;;;;9.30;5.68;;;22.10;62.60;;;;;;5065916;28;20037;-67
2022/06/05 05:14:25;;;;;;;8.68;5.32;;;22.10;62.60;;;;;;5063562;28;20083;-68
2022/06/05 05:16:51;;;;;;;9.55;5.68;;;22.10;62.60;;;;;;5064493;28;20028;-67
2022/06/05 05:19:16;;;;;;;10.38;6.03;;;22.10;62.60;;;;;;5064992;28;20040;-67
2022/06/05 05:21:42;;;;;;;10.00;5.97;;;22.00;62.50;;;;;;5063242;28;20026;-67
2022/06/05 05:24:08;;;;;;;9.13;5.28;;;22.00;62.50;;;;;;5062828;28;20039;-67
2022/06/05 05:26:34;;;;;;;9.13;5.60;;;22.00;62.50;;;;;;5062598;28;20437;-67
2022/06/05 05:29:00;;;;;;;9.15;5.60;;;22.00;62.50;;;;;;5063672;28;20064;-67
2022/06/05 05:31:31;;;;;;;9.77;5.32;;;22.00;62.50;;;;;;5064338;28;20485;-67
2022/06/05 05:33:57;;;;;;;10.45;5.30;;;22.00;62.50;;;;;;5066425;28;20593;-67
2022/06/05 05:36:23;;;;;;;10.38;5.40;;;22.00;62.50;;;;;;5061831;28;20037;-67
2022/06/05 05:44:18;;;;;;;10.57;5.10;;;22.00;62.50;;;;;;5060350;28;20082;-67
2022/06/05 05:46:44;;;;;;;9.35;5.40;;;22.00;62.50;;;;;;5062562;28;20324;-68
2022/06/05 05:49:10;;;;;;;8.73;5.07;;;22.00;62.50;;;;;;5062301;28;20127;-67
2022/06/05 05:51:35;;;;;;;11.85;5.38;;;22.00;62.50;;;;;;5063508;28;20021;-67
2022/06/05 05:54:01;;;;;;;9.48;5.20;;;22.00;62.50;;;;;;5061148;28;20082;-67
2022/06/05 05:56:27;;;;;;;9.55;5.40;;;22.00;62.50;;;;;;5061066;28;20527;-67
2022/06/05 05:58:52;;;;;;;9.40;5.50;;;22.00;62.50;;;;;;5060345;28;20098;-68
2022/06/05 06:01:18;;;;;;;10.00;5.43;;;22.00;62.50;;;;;;5062873;28;20028;-67
2022/06/05 06:03:44;;;;;;;9.90;5.20;;;22.00;62.50;;;;;;5061465;28;20033;-67
2022/06/05 06:06:09;;;;;;;9.75;5.45;;;22.00;62.50;;;;;;5063287;28;20103;-67
2022/06/05 06:08:35;;;;;;;10.38;5.07;;;22.00;62.50;;;;;;5061966;28;20036;-68
2022/06/05 06:11:01;;;;;;;10.68;5.53;;;21.90;62.40;;;;;;5060136;28;20067;-67
2022/06/05 06:13:27;;;;;;;9.50;5.10;;;21.90;62.50;;;;;;5062658;28;20484;-68
2022/06/05 06:15:52;;;;;;;10.10;6.10;;;21.90;62.40;;;;;;5062132;28;20030;-67
2022/06/05 06:18:19;;;;;;;9.88;5.68;;;21.90;62.40;;;;;;5062156;28;20033;-66
2022/06/05 06:20:48;;;;;;;9.35;5.25;;;21.90;62.40;;;;;;5062993;28;20032;-67
2022/06/05 06:23:14;;;;;;;9.48;5.38;;;21.90;62.40;;;;;;5063518;28;20116;-67
2022/06/05 06:25:40;;;;;;;9.20;5.13;;;21.90;62.40;;;;;;5062330;28;20044;-67
2022/06/05 06:28:06;;;;;;;9.57;5.47;;;21.90;62.40;;;;;;5064891;28;20032;-68
2022/06/05 06:30:32;;;;;;;8.98;5.10;;;21.90;62.40;;;;;;5062513;28;20032;-67
2022/06/05 06:32:58;;;;;;;8.00;4.85;;;21.90;62.40;;;;;;5063140;28;20021;-67
2022/06/05 06:35:23;;;;;;;9.70;5.32;;;21.90;62.50;;;;;;5064752;28;20404;-67
2022/06/05 06:37:49;;;;;;;9.05;5.43;;;21.90;62.40;;;;;;5063633;28;20473;-67
2022/06/05 06:40:15;;;;;;;8.70;5.13;;;21.90;62.40;;;;;;5064025;28;20043;-67
2022/06/05 06:42:40;;;;;;;7.60;4.75;;;21.90;62.40;;;;;;5062632;28;20025;-67
2022/06/05 06:45:07;;;;;;;8.95;5.25;;;21.90;62.40;;;;;;5060293;28;20025;-67
2022/06/05 06:47:33;;;;;;;8.35;4.80;;;21.90;62.40;;;;;;5062090;28;20749;-67
2022/06/05 06:49:59;;;;;;;10.45;5.10;;;21.90;62.40;;;;;;5064342;28;20043;-67
2022/06/05 06:52:25;;;;;;;8.40;5.20;;;21.90;62.40;;;;;;5064215;28;20036;-67
2022/06/05 06:54:50;;;;;;;8.02;4.97;;;21.80;62.40;;;;;;5062350;28;20028;-67
2022/06/05 06:57:16;;;;;;;9.32;4.75;;;21.80;62.40;;;;;;5062071;28;20030;-67
2022/06/05 06:59:42;;;;;;;10.90;5.10;;;21.90;62.50;;;;;;5060764;28;20417;-68
2022/06/05 07:02:07;;;;;;;9.20;4.75;;;21.90;62.90;;;;;;5064323;28;20154;-68
2022/06/05 07:04:34;;;;;;;9.57;5.20;;;21.90;62.70;;;;;;5065725;28;20016;-67
2022/06/05 07:07:00;;;;;;;10.98;5.20;;;21.90;63.60;;;;;;5061698;28;20488;-68
2022/06/05 07:09:25;;;;;;;9.15;4.57;;;22.00;62.60;;;;;;5060398;28;20032;-68
2022/06/05 07:11:51;;;;;;;13.77;4.82;;;22.00;62.80;;;;;;5064695;28;20095;-67
2022/06/05 07:14:17;;;;;;;11.57;4.93;;;22.00;63.20;;;;;;5059719;28;20036;-66
2022/06/05 07:16:43;;;;;;;10.65;5.30;;;22.10;63.00;;;;;;5072484;28;20024;-67
2022/06/05 07:19:10;;;;;;;12.48;5.28;;;22.10;63.40;;;;;;5063165;28;20503;-67
2022/06/05 07:21:36;;;;;;;10.52;5.05;;;22.20;63.50;;;;;;5061217;28;20516;-67
2022/06/05 07:24:02;;;;;;;12.15;5.10;;;22.20;63.30;;;;;;5061441;28;20020;-67
2022/06/05 07:26:30;;;;;;;9.95;4.68;;;22.20;63.10;;;;;;5063627;28;20397;-67
2022/06/05 07:28:56;;;;;;;12.73;4.80;;;22.20;63.30;;;;;;5058492;28;20025;-67
2022/06/05 07:31:23;;;;;;;10.98;5.28;;;22.20;63.50;;;;;;5063205;28;20285;-67
2022/06/05 07:33:48;;;;;;;10.52;5.03;;;22.10;63.20;;;;;;5062641;28;20784;-67
2022/06/05 07:36:16;;;;;;;9.20;4.70;;;22.10;63.00;;;;;;5063840;28;20098;-67
2022/06/05 07:38:42;;;;;;;10.73;5.05;;;22.10;63.20;;;;;;5063914;28;20373;-67
2022/06/05 07:41:16;;;;;;;11.05;5.03;;;22.10;63.20;;;;;;5068428;28;20095;-67
2022/06/05 07:43:42;;;;;;;10.20;4.75;;;22.20;63.20;;;;;;5065776;28;20037;-67
2022/06/05 07:46:08;;;;;;;12.93;6.20;;;22.20;63.70;;;;;;5063181;28;20497;-67
2022/06/05 07:48:33;;;;;;;30.20;11.10;;;22.20;63.90;;;;;;5062591;28;20113;-67
2022/06/05 07:56:39;;;;;;;36.83;18.20;;;22.30;64.20;;;;;;5064592;28;20023;-68
2022/06/05 07:59:05;;;;;;;36.03;15.80;;;22.30;64.80;;;;;;5067078;28;20475;-67
2022/06/05 08:01:31;;;;;;;40.40;17.35;;;22.40;65.60;;;;;;5065991;28;20082;-68
2022/06/05 08:03:56;;;;;;;36.65;16.95;;;22.30;65.00;;;;;;5066257;28;20037;-67
2022/06/05 08:06:22;;;;;;;30.90;15.10;;;22.30;65.90;;;;;;5063096;28;20099;-67
2022/06/05 08:08:47;;;;;;;22.17;10.57;;;22.30;65.60;;;;;;5062093;28;20067;-67
2022/06/05 08:11:13;;;;;;;17.15;6.82;;;22.30;64.30;;;;;;5063998;28;20505;-68
2022/06/05 08:13:39;;;;;;;17.30;6.18;;;22.30;62.30;;;;;;5066055;28;20064;-67
2022/06/05 08:16:05;;;;;;;14.15;5.28;;;22.20;60.70;;;;;;5066234;28;20196;-67
2022/06/05 08:18:30;;;;;;;14.70;5.20;;;22.20;59.90;;;;;;5066344;28;20063;-67
2022/06/05 08:20:56;;;;;;;13.38;4.60;;;22.20;60.50;;;;;;5065161;28;20046;-67
2022/06/05 08:23:23;;;;;;;12.73;4.05;;;22.10;59.30;;;;;;5065553;28;20453;-67
2022/06/05 08:25:49;;;;;;;16.70;6.82;;;22.20;58.90;;;;;;5064819;28;20037;-67
2022/06/05 08:28:14;;;;;;;9.65;3.50;;;22.20;60.00;;;;;;5061916;28;20158;-67
2022/06/05 08:30:40;;;;;;;30.77;14.00;;;22.10;58.40;;;;;;5063477;28;20029;-67
2022/06/05 08:33:07;;;;;;;20.15;9.48;;;22.20;62.60;;;;;;5065744;28;20514;-67
2022/06/05 08:35:32;;;;;;;21.33;9.02;;;22.20;62.90;;;;;;5066698;28;20033;-67
2022/06/05 08:44:04;;;;;;;19.40;7.68;;;22.30;62.50;;;;;;5051399;28;20409;-66
2022/06/05 08:46:36;;;;;;;18.52;6.93;;;22.30;62.20;;;;;;5064670;28;20037;-66
2022/06/05 08:49:14;;;;;;;17.15;6.68;;;22.30;61.90;;;;;;5065298;28;20036;-66
2022/06/05 08:52:01;;;;;;;16.30;6.22;;;22.40;61.90;;;;;;5065058;28;20032;-67
2022/06/05 08:54:49;;;;;;;14.88;6.20;;;22.40;61.90;;;;;;5057738;28;20463;-67
2022/06/05 08:57:18;;;;;;;20.48;8.65;;;22.40;61.90;;;;;;5063771;28;20029;-67
2022/06/05 08:59:55;;;;;;;36.00;15.07;;;22.40;61.80;;;;;;5061743;28;20344;-66
2022/06/05 09:02:44;;;;;;;29.88;12.30;;;22.50;62.80;;;;;;5048465;28;20017;-67
2022/06/05 09:05:22;;;;;;;18.92;7.70;;;22.50;63.20;;;;;;5062142;28;20474;-67
2022/06/05 09:07:52;;;;;;;12.10;4.20;;;22.50;60.80;;;;;;5059270;28;20047;-67
2022/06/05 09:10:23;;;;;;;11.70;4.43;;;22.40;58.20;;;;;;5047669;28;20024;-66
2022/06/05 09:12:53;;;;;;;12.30;4.40;;;22.40;57.40;;;;;;5060430;28;20544;-67
2022/06/05 09:15:26;;;;;;;18.17;6.63;;;22.40;58.30;;;;;;5064486;28;20072;-67
2022/06/05 09:17:57;;;;;;;14.63;4.10;;;22.40;58.30;;;;;;5059696;28;20025;-67
2022/06/05 09:20:55;;;;;;;12.77;4.38;;;22.40;57.10;;;;;;5062627;28;20033;-67
2022/06/05 09:23:22;;;;;;;14.73;5.55;;;22.40;59.60;;;;;;5062922;28;20060;-68
2022/06/05 09:25:58;;;;;;;19.92;5.65;;;22.40;58.70;;;;;;5060079;28;20037;-67
2022/06/05 09:28:28;;;;;;;16.13;5.57;;;22.40;57.30;;;;;;5064832;28;20040;-66
2022/06/05 09:31:18;;;;;;;47.95;26.63;;;22.40;58.10;;;;;;5063365;28;20033;-67
2022/06/05 09:33:44;;;;;;;21.13;10.05;;;22.40;59.50;;;;;;5062829;28;20028;-67
2022/06/05 09:36:15;;;;;;;8.45;3.58;;;22.40;58.20;;;;;;5061691;28;20040;-67
2022/06/05 09:38:46;;;;;;;16.83;7.40;;;22.40;57.40;;;;;;5061120;28;20397;-66
2022/06/05 09:41:37;;;;;;;16.75;6.95;;;22.40;57.70;;;;;;5059429;28;20037;-67
2022/06/05 09:44:21;;;;;;;12.15;2.88;;;22.40;58.70;;;;;;5039704;28;20033;-67
2022/06/05 09:47:03;;;;;;;9.13;3.20;;;22.40;57.10;;;;;;5040294;28;20041;-67
2022/06/05 09:49:41;;;;;;;9.18;2.80;;;22.40;56.60;;;;;;5040762;28;20462;-67
2022/06/05 09:52:18;;;;;;;9.05;3.00;;;22.40;56.70;;;;;;5040697;28;20756;-66
2022/06/05 09:55:00;;;;;;;12.65;5.20;;;22.40;56.60;;;;;;5032808;28;20605;-66
2022/06/05 09:58:31;;;;;;;15.85;4.43;;;22.50;57.80;;;;;;5040343;28;20037;-66
2022/06/05 10:00:43;;;;;;;;;;;22.50;57.20;;;;;;5039289;28;20048;-67
2022/06/05 10:03:14;;;;;;;11.68;3.67;;;22.50;57.50;;;;;;5023643;28;19909;-66
2022/06/05 10:05:44;;;;;;;15.95;3.45;;;22.50;57.80;;;;;;5025101;28;20025;-66
2022/06/05 10:08:42;;;;;;;9.48;4.00;;;22.50;57.80;;;;;;5027336;28;20677;-66
2022/06/05 10:11:20;;;;;;;11.65;3.72;;;22.50;57.90;;;;;;5026557;28;20051;-66
2022/06/05 10:13:50;;;;;;;9.98;3.67;;;22.50;58.30;;;;;;5025077;28;20735;-66
2022/06/05 10:16:31;;;;;;;12.25;3.45;;;22.50;58.20;;;;;;5011337;28;20040;-66
2022/06/05 10:19:14;;;;;;;10.43;3.47;;;22.50;58.10;;;;;;5028491;28;20025;-65
2022/06/05 10:21:52;;;;;;;11.35;3.25;;;22.50;58.20;;;;;;5049749;28;20028;-66
2022/06/05 10:24:47;;;;;;;11.68;3.40;;;22.50;58.20;;;;;;5061659;28;20028;-66
2022/06/05 10:27:13;;;;;;;10.88;3.50;;;22.50;58.40;;;;;;5062797;28;20024;-66
2022/06/05 10:29:39;;;;;;;9.25;3.30;;;22.50;58.50;;;;;;5063915;28;20025;-66
2022/06/05 10:32:30;;;;;;;10.77;3.33;;;22.50;58.70;;;;;;5062746;28;20095;-66
2022/06/05 10:34:56;;;;;;;10.57;3.42;;;22.50;58.70;;;;;;5063700;28;20044;-66
2022/06/05 10:37:50;;;;;;;12.40;3.50;;;22.60;58.80;;;;;;5065464;28;20036;-66
2022/06/05 10:40:19;;;;;;;10.33;3.30;;;22.60;58.80;;;;;;5048951;28;20076;-66
2022/06/05 10:43:02;;;;;;;11.02;3.10;;;22.60;58.80;;;;;;5062313;28;20110;-66
2022/06/05 10:45:34;;;;;;;10.52;3.22;;;22.60;58.80;;;;;;5045474;28;20488;-66
2022/06/05 10:48:23;;;;;;;7.45;2.95;;;22.60;58.90;;;;;;5046348;28;20056;-66
2022/06/05 10:50:53;;;;;;;9.73;3.13;;;22.60;58.80;;;;;;5045174;28;20041;-66
2022/06/05 10:53:19;;;;;;;7.88;3.38;;;22.60;58.90;;;;;;5046390;28;20024;-66
2022/06/05 10:56:31;;;;;;;11.15;3.30;;;22.60;58.80;;;;;;5062943;28;20761;-66
2022/06/05 10:59:05;;;;;;;10.40;2.97;;;22.70;58.90;;;;;;4964405;28;20117;-67
2022/06/05 11:01:49;;;;;;;12.50;3.20;;;22.60;58.80;;;;;;4949223;28;20031;-67
2022/06/05 11:04:23;;;;;;;5.77;2.70;;;22.70;58.90;;;;;;4964720;28;20047;-67
2022/06/05 11:06:58;;;;;;;9.50;2.97;;;22.70;59.00;;;;;;4946250;28;20290;-66
2022/06/05 11:09:43;;;;;;;7.05;2.90;;;22.70;58.90;;;;;;4947891;28;20038;-66
2022/06/05 11:15:34;;;;;;;9.82;3.17;;;22.80;59.00;;;;;;4953849;28;20041;-66
2022/06/05 11:18:33;;;;;;;9.15;3.15;;;22.80;58.90;;;;;;4968673;28;20262;-67
2022/06/05 11:20:59;;;;;;;9.95;3.00;;;22.80;58.90;;;;;;4950821;28;20079;-66
2022/06/05 11:23:27;;;;;;;10.85;2.90;;;22.90;58.90;;;;;;4951643;28;20066;-66
2022/06/05 11:26:05;;;;;;;6.18;2.83;;;22.80;59.00;;;;;;4951976;28;20031;-66
2022/06/05 11:28:51;;;;;;;7.60;2.80;;;22.80;59.00;;;;;;4964947;28;20041;-66
2022/06/05 11:32:04;;;;;;;8.25;2.78;;;22.80;59.30;;;;;;5064959;28;20028;-66
2022/06/05 11:34:39;;;;;;;6.93;2.40;;;22.80;59.40;;;;;;5035244;28;20502;-67
2022/06/05 11:37:16;;;;;;;8.75;2.83;;;22.70;59.40;;;;;;5030330;28;20028;-66
2022/06/05 11:40:15;;;;;;;6.63;2.72;;;22.80;59.50;;;;;;5046543;28;20041;-66
2022/06/05 11:42:44;;;;;;;7.43;2.70;;;22.70;59.40;;;;;;5041834;28;20548;-67
2022/06/05 11:45:41;;;;;;;12.02;2.90;;;22.80;59.40;;;;;;5030284;28;20120;-67
2022/06/05 11:48:22;;;;;;;6.07;2.65;;;22.70;59.40;;;;;;5044019;28;20099;-66
2022/06/05 11:51:10;;;;;;;7.97;2.70;;;22.80;59.50;;;;;;5045548;28;20390;-67
2022/06/05 11:53:56;;;;;;;7.55;2.67;;;22.80;59.50;;;;;;4994805;28;20466;-67
2022/06/05 11:56:42;;;;;;;7.70;2.85;;;22.80;60.60;;;;;;5003094;28;20499;-66
2022/06/05 11:59:46;;;;;;;6.47;2.38;;;22.80;59.60;;;;;;5006530;28;20034;-67
2022/06/05 12:02:11;;;;;;;7.78;2.58;;;22.80;59.60;;;;;;5006254;28;20549;-67
2022/06/05 12:04:49;;;;;;;7.45;2.65;;;22.80;59.40;;;;;;5010481;28;20069;-66
2022/06/05 12:07:14;;;;;;;5.93;2.22;;;22.90;59.50;;;;;;5022750;28;20032;-67
2022/06/05 12:09:49;;;;;;;9.70;2.50;;;22.90;59.10;;;;;;5010681;28;20025;-66
2022/06/05 12:12:21;;;;;;;7.57;2.40;;;22.90;59.30;;;;;;5008280;28;20045;-67
2022/06/05 12:15:16;;;;;;;7.50;2.80;;;22.90;59.70;;;;;;5021689;28;20533;-67
2022/06/05 12:17:51;;;;;;;7.63;2.58;;;22.80;59.80;;;;;;4993179;28;20315;-66
2022/06/05 12:20:43;;;;;;;7.63;2.92;;;22.80;59.80;;;;;;4995241;28;20065;-67
2022/06/05 12:23:17;;;;;;;9.20;2.95;;;22.80;59.80;;;;;;5021679;28;20198;-66
2022/06/05 12:25:52;;;;;;;13.02;3.97;;;22.80;59.80;;;;;;5011096;28;20021;-66
2022/06/05 12:28:39;;;;;;;9.15;3.30;;;22.80;59.60;;;;;;5015685;28;20041;-66
2022/06/05 12:31:11;;;;;;;11.93;4.30;;;22.80;59.60;;;;;;5048451;28;20037;-66
2022/06/05 12:33:48;;;;;;;14.65;4.93;;;22.80;59.80;;;;;;5066494;28;20038;-66
2022/06/05 12:36:26;;;;;;;9.85;3.60;;;22.80;59.20;;;;;;5065787;28;20048;-66
2022/06/05 12:38:59;;;;;;;13.32;4.40;;;22.90;59.50;;;;;;5066885;28;20030;-66
2022/06/05 12:42:00;;;;;;;15.48;4.53;;;22.90;59.30;;;;;;5066726;28;20032;-66
2022/06/05 12:44:31;;;;;;;12.52;4.35;;;22.90;59.30;;;;;;5066348;28;20033;-66
2022/06/05 12:47:18;;;;;;;14.30;4.40;;;23.00;59.70;;;;;;5060240;28;20012;-66
2022/06/05 12:49:56;;;;;;;12.27;4.30;;;23.00;59.60;;;;;;5064290;28;20501;-66
2022/06/05 12:52:40;;;;;;;16.52;4.88;;;23.00;59.60;;;;;;5065638;28;20044;-66
2022/06/05 12:55:16;;;;;;;17.80;4.72;;;23.00;59.20;;;;;;5066220;28;20037;-66
2022/06/05 12:57:45;;;;;;;14.40;4.40;;;23.00;59.50;;;;;;5064904;28;20029;-67
2022/06/05 13:00:46;;;;;;;15.73;4.88;;;23.00;59.80;;;;;;5065404;28;20123;-67
2022/06/05 13:03:30;;;;;;;12.38;4.60;;;22.90;59.80;;;;;;5045053;28;20504;-67
2022/06/05 13:05:55;;;;;;;14.95;5.00;;;23.00;59.70;;;;;;5044890;28;20080;-67
2022/06/05 13:08:42;;;;;;;13.07;4.43;;;23.00;59.40;;;;;;5045541;28;20610;-67
2022/06/05 13:11:22;;;;;;;14.30;4.68;;;23.10;59.60;;;;;;5045104;28;20028;-67
2022/06/05 13:14:09;;;;;;;13.13;4.35;;;23.10;59.30;;;;;;5044188;28;20045;-67
2022/06/05 13:16:55;;;;;;;12.82;4.03;;;23.10;59.10;;;;;;5044730;28;20544;-66
2022/06/05 13:19:28;;;;;;;12.25;4.60;;;23.20;59.00;;;;;;5030482;28;20029;-67
2022/06/05 13:22:10;;;;;;;13.95;4.57;;;23.20;59.10;;;;;;5028879;28;20025;-67
2022/06/05 13:24:50;;;;;;;11.25;4.13;;;23.10;59.10;;;;;;5044238;28;20029;-67
2022/06/05 13:27:40;;;;;;;18.08;4.60;;;23.10;59.30;;;;;;5042227;28;20091;-67